Time,TemperatureF,DewpointF,PressureIn,WindDirection,WindDirectionDegrees,WindSpeedMPH,WindSpeedGustMPH,Humidity,HourlyPrecipIn,Conditions,Clouds,dailyrainin,SoftwareType,DateUTC
2013-06-11 00:02:00,71.0,18.0,-100.00,NNE,23,5.0,9.0,13,0.00,,,0.00,,2013-06-11 06:02:00,
2013-06-11 00:12:00,71.0,18.0,-100.00,NNE,23,5.0,9.0,13,0.00,,,0.00,,2013-06-11 06:12:00,
2013-06-11 00:22:00,71.0,18.0,-100.00,NNE,23,5.0,9.0,13,0.00,,,0.00,,2013-06-11 06:22:00,
2013-06-11 00:32:00,71.0,18.0,-100.00,NNE,23,5.0,9.0,13,0.00,,,0.00,,2013-06-11 06:32:00,
2013-06-11 00:52:00,68.0,17.0,-100.00,North,349,2.0,6.0,14,0.00,,,0.00,,2013-06-11 06:52:00,
2013-06-11 01:02:00,68.0,17.0,-100.00,North,349,2.0,6.0,14,0.00,,,0.00,,2013-06-11 07:02:00,
2013-06-11 01:12:00,68.0,17.0,-100.00,North,349,2.0,6.0,14,0.00,,,0.00,,2013-06-11 07:12:00,
2013-06-11 01:22:00,68.0,17.0,-100.00,North,349,2.0,6.0,14,0.00,,,0.00,,2013-06-11 07:22:00,
2013-06-11 01:32:00,68.0,17.0,-100.00,North,349,2.0,6.0,14,0.00,,,0.00,,2013-06-11 07:32:00,
2013-06-11 01:52:00,66.0,15.0,-100.00,North,8,4.0,10.0,14,0.00,,,0.00,,2013-06-11 07:52:00,
2013-06-11 02:02:00,66.0,15.0,-100.00,North,8,4.0,10.0,14,0.00,,,0.00,,2013-06-11 08:02:00,
2013-06-11 02:12:00,66.0,15.0,-100.00,North,8,4.0,10.0,14,0.00,,,0.00,,2013-06-11 08:12:00,
2013-06-11 02:22:00,66.0,15.0,-100.00,North,8,4.0,10.0,14,0.00,,,0.00,,2013-06-11 08:22:00,
2013-06-11 02:32:00,66.0,15.0,-100.00,North,8,4.0,10.0,14,0.00,,,0.00,,2013-06-11 08:32:00,
2013-06-11 02:52:00,65.0,15.0,-100.00,North,6,4.0,8.0,14,0.00,,,0.00,,2013-06-11 08:52:00,
2013-06-11 03:02:00,65.0,15.0,-100.00,North,6,4.0,8.0,14,0.00,,,0.00,,2013-06-11 09:02:00,
2013-06-11 03:12:00,65.0,15.0,-100.00,North,6,4.0,8.0,14,0.00,,,0.00,,2013-06-11 09:12:00,
2013-06-11 03:22:00,65.0,15.0,-100.00,North,6,4.0,8.0,14,0.00,,,0.00,,2013-06-11 09:22:00,
2013-06-11 03:33:00,65.0,15.0,-100.00,North,6,4.0,8.0,14,0.00,,,0.00,,2013-06-11 09:33:00,
2013-06-11 03:53:00,63.0,13.0,-100.00,NW,321,4.0,5.0,14,0.00,,,0.00,,2013-06-11 09:53:00,
2013-06-11 04:03:00,63.0,13.0,-100.00,NW,321,4.0,5.0,14,0.00,,,0.00,,2013-06-11 10:03:00,
2013-06-11 04:12:00,63.0,13.0,-100.00,NW,321,4.0,5.0,14,0.00,,,0.00,,2013-06-11 10:12:00,
2013-06-11 04:22:00,63.0,13.0,-100.00,NW,321,4.0,5.0,14,0.00,,,0.00,,2013-06-11 10:22:00,
2013-06-11 04:33:00,63.0,13.0,-100.00,NW,321,4.0,5.0,14,0.00,,,0.00,,2013-06-11 10:33:00,
2013-06-11 05:02:00,62.0,12.0,-100.00,WNW,285,4.0,5.0,14,0.00,,,-99.99,,2013-06-11 11:02:00,
2013-06-11 05:12:00,62.0,12.0,-100.00,WNW,285,4.0,5.0,14,0.00,,,-99.99,,2013-06-11 11:12:00,
2013-06-11 05:22:00,62.0,12.0,-100.00,WNW,285,4.0,5.0,14,0.00,,,-99.99,,2013-06-11 11:22:00,
2013-06-11 05:32:00,62.0,12.0,-100.00,WNW,285,4.0,5.0,14,0.00,,,-99.99,,2013-06-11 11:32:00,
2013-06-11 05:52:00,61.0,11.0,-100.00,WNW,286,3.0,5.0,14,0.00,,,-99.99,,2013-06-11 11:52:00,
2013-06-11 06:02:00,61.0,11.0,-100.00,WNW,286,3.0,5.0,14,0.00,,,-99.99,,2013-06-11 12:02:00,
2013-06-11 06:12:00,61.0,11.0,-100.00,WNW,286,3.0,5.0,14,0.00,,,-99.99,,2013-06-11 12:12:00,
2013-06-11 06:22:00,61.0,11.0,-100.00,WNW,286,3.0,5.0,14,0.00,,,-99.99,,2013-06-11 12:22:00,
2013-06-11 06:32:00,61.0,11.0,-100.00,WNW,286,3.0,5.0,14,0.00,,,-99.99,,2013-06-11 12:32:00,
2013-06-11 06:52:00,63.0,8.0,-100.00,WNW,290,4.0,5.0,11,0.00,,,-99.99,,2013-06-11 12:52:00,
2013-06-11 07:02:00,63.0,8.0,-100.00,WNW,290,4.0,5.0,11,0.00,,,-99.99,,2013-06-11 13:02:00,
2013-06-11 07:52:00,71.0,18.0,-100.00,West,278,4.0,6.0,13,-99.99,,,0.00,,2013-06-11 13:52:00,
2013-06-11 08:02:00,71.0,18.0,-100.00,West,278,4.0,6.0,13,-99.99,,,0.00,,2013-06-11 14:02:00,
2013-06-11 08:53:00,74.0,18.0,-100.00,West,270,5.0,10.0,12,-99.99,,,0.00,,2013-06-11 14:53:00,
2013-06-11 09:02:00,74.0,18.0,-100.00,West,270,5.0,10.0,12,-99.99,,,0.00,,2013-06-11 15:02:00,
2013-06-11 09:32:00,74.0,18.0,-100.00,West,270,5.0,10.0,12,-99.99,,,0.00,,2013-06-11 15:32:00,
2013-06-11 09:53:00,78.0,15.0,-100.00,NNW,327,6.0,13.0,9,0.00,,,0.00,,2013-06-11 15:53:00,
2013-06-11 10:02:00,78.0,15.0,-100.00,NNW,327,6.0,13.0,9,0.00,,,0.00,,2013-06-11 16:02:00,
2013-06-11 10:32:00,78.0,15.0,-100.00,NNW,327,6.0,13.0,9,0.00,,,0.00,,2013-06-11 16:32:00,
2013-06-11 10:52:00,81.0,17.0,-100.00,North,9,8.0,18.0,9,0.00,,,-99.99,,2013-06-11 16:52:00,
2013-06-11 11:02:00,81.0,17.0,-100.00,North,9,8.0,18.0,9,0.00,,,-99.99,,2013-06-11 17:02:00,
2013-06-11 11:12:00,81.0,17.0,-100.00,North,9,8.0,18.0,9,0.00,,,-99.99,,2013-06-11 17:12:00,
2013-06-11 11:22:00,81.0,17.0,-100.00,North,9,8.0,18.0,9,0.00,,,-99.99,,2013-06-11 17:22:00,
2013-06-11 11:32:00,81.0,17.0,-100.00,North,9,8.0,18.0,9,0.00,,,-99.99,,2013-06-11 17:32:00,
2013-06-11 11:52:00,82.0,15.0,-100.00,NNE,22,11.0,23.0,8,0.00,,,0.00,,2013-06-11 17:52:00,
2013-06-11 12:02:00,82.0,15.0,-100.00,NNE,22,11.0,23.0,8,0.00,,,0.00,,2013-06-11 18:02:00,
2013-06-11 12:12:00,82.0,15.0,-100.00,NNE,22,11.0,23.0,8,0.00,,,0.00,,2013-06-11 18:12:00,
2013-06-11 12:22:00,82.0,15.0,-100.00,NNE,22,11.0,23.0,8,0.00,,,0.00,,2013-06-11 18:22:00,
2013-06-11 12:32:00,82.0,15.0,-100.00,NNE,22,11.0,23.0,8,0.00,,,0.00,,2013-06-11 18:32:00,
2013-06-11 12:52:00,85.0,17.0,-100.00,North,349,9.0,20.0,8,0.00,,,0.00,,2013-06-11 18:52:00,
2013-06-11 13:02:00,85.0,17.0,-100.00,North,349,9.0,20.0,8,0.00,,,0.00,,2013-06-11 19:02:00,
2013-06-11 13:12:00,85.0,17.0,-100.00,North,349,9.0,20.0,8,0.00,,,0.00,,2013-06-11 19:12:00,
2013-06-11 13:22:00,85.0,17.0,-100.00,North,349,9.0,20.0,8,0.00,,,0.00,,2013-06-11 19:22:00,
2013-06-11 13:32:00,85.0,17.0,-100.00,North,349,9.0,20.0,8,0.00,,,0.00,,2013-06-11 19:32:00,
2013-06-11 13:52:00,85.0,14.0,-100.00,NNE,16,14.0,22.0,7,0.00,,,0.00,,2013-06-11 19:52:00,
2013-06-11 14:02:00,85.0,14.0,-100.00,NNE,16,14.0,22.0,7,0.00,,,0.00,,2013-06-11 20:02:00,
2013-06-11 14:12:00,85.0,14.0,-100.00,NNE,16,14.0,22.0,7,0.00,,,0.00,,2013-06-11 20:12:00,
2013-06-11 14:22:00,85.0,14.0,-100.00,NNE,16,14.0,22.0,7,0.00,,,0.00,,2013-06-11 20:22:00,
2013-06-11 14:32:00,85.0,14.0,-100.00,NNE,16,14.0,22.0,7,0.00,,,0.00,,2013-06-11 20:32:00,
2013-06-11 14:52:00,87.0,16.0,-100.00,NNE,13,11.0,25.0,7,0.00,,,0.00,,2013-06-11 20:52:00,
2013-06-11 15:02:00,87.0,16.0,-100.00,NNE,13,11.0,25.0,7,0.00,,,0.00,,2013-06-11 21:02:00,
2013-06-11 15:12:00,87.0,16.0,-100.00,NNE,13,11.0,25.0,7,0.00,,,0.00,,2013-06-11 21:12:00,
2013-06-11 15:22:00,87.0,16.0,-100.00,NNE,13,11.0,25.0,7,0.00,,,0.00,,2013-06-11 21:22:00,
2013-06-11 15:32:00,87.0,16.0,-100.00,NNE,13,11.0,25.0,7,0.00,,,0.00,,2013-06-11 21:32:00,
2013-06-11 15:53:00,88.0,19.0,-100.00,ENE,70,10.0,19.0,8,0.00,,,0.00,,2013-06-11 21:53:00,
2013-06-11 16:03:00,88.0,19.0,-100.00,ENE,70,10.0,19.0,8,0.00,,,0.00,,2013-06-11 22:03:00,
2013-06-11 16:12:00,88.0,19.0,-100.00,ENE,70,10.0,19.0,8,0.00,,,0.00,,2013-06-11 22:12:00,
2013-06-11 16:22:00,88.0,19.0,-100.00,ENE,70,10.0,19.0,8,0.00,,,0.00,,2013-06-11 22:22:00,
2013-06-11 16:32:00,88.0,19.0,-100.00,ENE,70,10.0,19.0,8,0.00,,,0.00,,2013-06-11 22:32:00,
2013-06-11 16:52:00,87.0,19.0,-100.00,NE,50,10.0,21.0,8,0.00,,,0.00,,2013-06-11 22:52:00,
2013-06-11 17:02:00,87.0,19.0,-100.00,NE,50,10.0,21.0,8,0.00,,,0.00,,2013-06-11 23:02:00,
2013-06-11 17:12:00,87.0,19.0,-100.00,NE,50,10.0,21.0,8,0.00,,,0.00,,2013-06-11 23:12:00,
2013-06-11 17:22:00,87.0,19.0,-100.00,NE,50,10.0,21.0,8,0.00,,,0.00,,2013-06-11 23:22:00,
2013-06-11 17:32:00,87.0,19.0,-100.00,NE,50,10.0,21.0,8,0.00,,,0.00,,2013-06-11 23:32:00,
2013-06-11 17:52:00,87.0,16.0,-100.00,ENE,61,10.0,21.0,7,0.00,,,0.00,,2013-06-11 23:52:00,
2013-06-11 18:02:00,87.0,16.0,-100.00,ENE,61,10.0,21.0,7,0.00,,,0.00,,2013-06-12 00:02:00,
2013-06-11 18:12:00,87.0,16.0,-100.00,ENE,61,10.0,21.0,7,0.00,,,0.00,,2013-06-12 00:12:00,
2013-06-11 18:22:00,87.0,16.0,-100.00,ENE,61,10.0,21.0,7,0.00,,,0.00,,2013-06-12 00:22:00,
2013-06-11 18:32:00,87.0,16.0,-100.00,ENE,61,10.0,21.0,7,0.00,,,0.00,,2013-06-12 00:32:00,
2013-06-11 18:52:00,86.0,15.0,-100.00,ENE,76,9.0,20.0,7,0.00,,,0.00,,2013-06-12 00:52:00,
2013-06-11 19:02:00,86.0,15.0,-100.00,ENE,76,9.0,20.0,7,0.00,,,0.00,,2013-06-12 01:02:00,
2013-06-11 19:12:00,86.0,15.0,-100.00,ENE,76,9.0,20.0,7,0.00,,,0.00,,2013-06-12 01:12:00,
2013-06-11 19:22:00,86.0,15.0,-100.00,ENE,76,9.0,20.0,7,0.00,,,0.00,,2013-06-12 01:22:00,
2013-06-11 19:32:00,86.0,15.0,-100.00,ENE,76,9.0,20.0,7,0.00,,,0.00,,2013-06-12 01:32:00,
2013-06-11 19:52:00,83.0,16.0,-100.00,ENE,72,9.0,16.0,8,0.00,,,0.00,,2013-06-12 01:52:00,
2013-06-11 20:02:00,83.0,16.0,-100.00,ENE,72,9.0,16.0,8,0.00,,,0.00,,2013-06-12 02:02:00,
2013-06-11 20:12:00,83.0,16.0,-100.00,ENE,72,9.0,16.0,8,0.00,,,0.00,,2013-06-12 02:12:00,
2013-06-11 20:22:00,83.0,16.0,-100.00,ENE,72,9.0,16.0,8,0.00,,,0.00,,2013-06-12 02:22:00,
2013-06-11 20:32:00,83.0,16.0,-100.00,ENE,72,9.0,16.0,8,0.00,,,0.00,,2013-06-12 02:32:00,
2013-06-11 20:52:00,76.0,16.0,-100.00,ESE,118,4.0,12.0,10,0.00,,,0.00,,2013-06-12 02:52:00,
2013-06-11 21:02:00,76.0,16.0,-100.00,ESE,118,4.0,12.0,10,0.00,,,0.00,,2013-06-12 03:02:00,
2013-06-11 21:12:00,76.0,16.0,-100.00,ESE,118,4.0,12.0,10,0.00,,,0.00,,2013-06-12 03:12:00,
2013-06-11 21:22:00,76.0,16.0,-100.00,ESE,118,4.0,12.0,10,0.00,,,0.00,,2013-06-12 03:22:00,
2013-06-11 21:32:00,76.0,16.0,-100.00,ESE,118,4.0,12.0,10,0.00,,,0.00,,2013-06-12 03:32:00,
2013-06-11 21:53:00,71.0,16.0,-100.00,SE,140,5.0,7.0,12,0.00,,,0.00,,2013-06-12 03:53:00,
2013-06-11 22:02:00,71.0,16.0,-100.00,SE,140,5.0,7.0,12,0.00,,,0.00,,2013-06-12 04:02:00,
2013-06-11 22:12:00,71.0,16.0,-100.00,SE,140,5.0,7.0,12,0.00,,,0.00,,2013-06-12 04:12:00,
2013-06-11 22:22:00,71.0,16.0,-100.00,SE,140,5.0,7.0,12,0.00,,,0.00,,2013-06-12 04:22:00,
2013-06-11 22:33:00,71.0,16.0,-100.00,SE,140,5.0,7.0,12,0.00,,,0.00,,2013-06-12 04:33:00,
2013-06-11 22:52:00,68.0,15.0,-100.00,South,184,3.0,6.0,13,0.00,,,0.00,,2013-06-12 04:52:00,
2013-06-11 23:02:00,68.0,15.0,-100.00,South,184,3.0,6.0,13,0.00,,,0.00,,2013-06-12 05:02:00,
2013-06-11 23:12:00,68.0,15.0,-100.00,South,184,3.0,6.0,13,0.00,,,0.00,,2013-06-12 05:12:00,
2013-06-11 23:22:00,68.0,15.0,-100.00,South,184,3.0,6.0,13,0.00,,,0.00,,2013-06-12 05:22:00,
2013-06-11 23:32:00,68.0,15.0,-100.00,South,184,3.0,6.0,13,0.00,,,0.00,,2013-06-12 05:32:00,
2013-06-11 23:52:00,65.0,15.0,-100.00,South,179,4.0,5.0,14,0.00,,,0.00,,2013-06-12 05:52:00,